createdAt,value
2019-05-19T00:01:58.991Z,14.43
2019-05-19T00:04:28.257Z,14.36
2019-05-19T00:06:57.438Z,14.27
2019-05-19T00:09:26.504Z,13.99
2019-05-19T00:11:55.613Z,13.97
2019-05-19T00:14:24.760Z,14.08
2019-05-19T00:16:54.415Z,14.09
2019-05-19T00:19:26.811Z,14.05
2019-05-19T00:21:54.635Z,13.99
2019-05-19T00:24:23.846Z,13.95
2019-05-19T00:26:52.858Z,13.91
2019-05-19T00:29:23.245Z,13.87
2019-05-19T00:31:52.473Z,13.83
2019-05-19T00:34:21.851Z,13.82
2019-05-19T00:36:50.872Z,13.77
2019-05-19T00:39:20.086Z,13.75
2019-05-19T00:41:49.335Z,13.74
2019-05-19T00:44:19.102Z,13.71
2019-05-19T00:46:48.486Z,13.68
2019-05-19T00:49:17.871Z,13.63
2019-05-19T00:51:47.462Z,13.60
2019-05-19T00:54:16.877Z,13.56
2019-05-19T00:56:46.552Z,13.52
2019-05-19T00:59:16.087Z,13.49
2019-05-19T01:01:45.481Z,13.43
2019-05-19T01:04:14.600Z,13.38
2019-05-19T01:06:44.029Z,13.34
2019-05-19T01:09:13.327Z,13.32
2019-05-19T01:11:42.545Z,13.29
2019-05-19T01:14:11.684Z,13.27
2019-05-19T01:16:41.480Z,13.21
2019-05-19T01:19:11.446Z,13.19
2019-05-19T01:21:41.446Z,13.18
2019-05-19T01:24:11.011Z,12.99
2019-05-19T01:26:41.353Z,13.16
2019-05-19T01:29:10.433Z,13.11
2019-05-19T01:31:39.635Z,13.04
2019-05-19T01:34:08.518Z,13.01
2019-05-19T01:36:37.692Z,12.98
2019-05-19T01:39:07.509Z,12.94
2019-05-19T01:41:37.148Z,12.95
2019-05-19T01:44:06.344Z,12.92
2019-05-19T01:46:39.985Z,12.89
2019-05-19T01:49:07.969Z,12.84
2019-05-19T01:51:37.269Z,12.84
2019-05-19T01:54:06.545Z,12.84
2019-05-19T01:56:37.095Z,12.84
2019-05-19T01:59:06.426Z,12.84
2019-05-19T02:01:35.395Z,12.83
2019-05-19T02:04:04.588Z,12.81
2019-05-19T02:06:33.823Z,12.82
2019-05-19T02:09:04.833Z,12.80
2019-05-19T02:11:34.375Z,12.83
2019-05-19T02:14:03.692Z,12.85
2019-05-19T02:16:33.705Z,12.87
2019-05-19T02:19:03.501Z,12.89
2019-05-19T02:21:33.849Z,12.90
2019-05-19T02:24:03.350Z,12.90
2019-05-19T02:26:34.405Z,12.90
2019-05-19T02:29:03.497Z,12.91
2019-05-19T02:31:32.588Z,12.92
2019-05-19T02:34:01.720Z,12.94
2019-05-19T02:36:30.770Z,12.95
2019-05-19T02:39:00.134Z,12.96
2019-05-19T02:41:29.408Z,12.97
2019-05-19T02:43:58.860Z,12.98
2019-05-19T02:46:28.901Z,13.00
2019-05-19T02:48:58.339Z,12.91
2019-05-19T02:51:28.430Z,12.91
2019-05-19T02:53:58.047Z,13.03
2019-05-19T02:56:28.088Z,13.04
2019-05-19T02:58:57.753Z,13.06
2019-05-19T03:01:26.950Z,13.05
2019-05-19T03:03:56.173Z,13.09
2019-05-19T03:06:25.458Z,13.10
2019-05-19T03:08:54.553Z,13.12
2019-05-19T03:11:23.739Z,13.13
2019-05-19T03:13:53.024Z,13.16
2019-05-19T03:16:22.841Z,13.20
2019-05-19T03:18:51.825Z,13.25
2019-05-19T03:21:21.386Z,13.29
2019-05-19T03:23:50.445Z,13.31
2019-05-19T03:26:19.535Z,13.36
2019-05-19T03:28:48.961Z,13.31
2019-05-19T03:31:43.366Z,13.39
2019-05-19T03:34:13.396Z,13.51
2019-05-19T03:36:42.979Z,13.58
2019-05-19T03:39:12.330Z,13.62
2019-05-19T03:41:42.009Z,13.66
2019-05-19T03:44:11.051Z,13.73
2019-05-19T03:46:40.213Z,13.78
2019-05-19T03:49:09.272Z,13.83
2019-05-19T03:51:38.340Z,13.87
2019-05-19T03:54:07.433Z,13.91
2019-05-19T03:56:36.640Z,13.93
2019-05-19T03:59:05.799Z,13.96
2019-05-19T04:01:34.844Z,13.99
2019-05-19T04:04:03.943Z,14.02
2019-05-19T04:06:33.148Z,14.06
2019-05-19T04:09:02.335Z,14.12
2019-05-19T04:11:31.581Z,14.17
2019-05-19T04:14:00.794Z,14.21
2019-05-19T04:16:29.792Z,14.26
2019-05-19T04:18:59.641Z,14.30
2019-05-19T04:21:28.815Z,14.34
2019-05-19T04:23:58.172Z,14.42
2019-05-19T04:26:27.385Z,14.47
2019-05-19T04:28:56.708Z,14.51
2019-05-19T04:31:26.001Z,14.57
2019-05-19T04:33:55.257Z,14.63
2019-05-19T04:36:24.490Z,14.70
2019-05-19T04:38:53.616Z,14.76
2019-05-19T04:41:22.712Z,14.82
2019-05-19T04:43:51.675Z,14.90
2019-05-19T04:46:20.778Z,14.96
2019-05-19T04:48:50.159Z,15.01
2019-05-19T04:51:19.365Z,15.03
2019-05-19T04:53:48.497Z,15.05
2019-05-19T04:56:19.771Z,15.15
2019-05-19T04:58:48.464Z,15.24
2019-05-19T05:01:18.346Z,15.30
2019-05-19T05:03:48.610Z,15.40
2019-05-19T05:06:17.715Z,15.50
2019-05-19T05:08:48.471Z,15.54
2019-05-19T05:11:17.956Z,15.61
2019-05-19T05:13:47.512Z,15.65
2019-05-19T05:16:17.175Z,15.73
2019-05-19T05:18:48.027Z,15.79
2019-05-19T05:21:17.393Z,15.86
2019-05-19T05:23:46.670Z,15.88
2019-05-19T05:26:15.739Z,15.93
2019-05-19T05:28:45.204Z,15.97
2019-05-19T05:31:15.617Z,16.06
2019-05-19T05:33:46.292Z,16.12
2019-05-19T05:36:15.415Z,16.19
2019-05-19T05:38:44.895Z,16.19
2019-05-19T05:41:15.703Z,16.21
2019-05-19T05:43:45.462Z,16.23
2019-05-19T05:46:14.553Z,16.26
2019-05-19T05:48:43.646Z,16.33
2019-05-19T05:51:12.853Z,16.43
2019-05-19T05:53:41.957Z,16.47
2019-05-19T05:56:11.287Z,16.51
2019-05-19T05:58:41.679Z,16.53
2019-05-19T06:01:10.785Z,16.57
2019-05-19T06:03:40.214Z,16.61
2019-05-19T06:06:09.501Z,16.65
2019-05-19T06:08:39.340Z,16.71
2019-05-19T06:11:09.203Z,16.72
2019-05-19T06:13:39.002Z,16.73
2019-05-19T06:16:08.743Z,16.75
2019-05-19T06:18:38.151Z,16.77
2019-05-19T06:21:07.560Z,16.82
2019-05-19T06:23:37.216Z,16.85
2019-05-19T06:26:06.849Z,16.94
2019-05-19T06:28:35.781Z,16.96
2019-05-19T06:31:04.824Z,16.96
2019-05-19T06:33:34.503Z,16.95
2019-05-19T06:36:03.546Z,16.99
2019-05-19T06:38:32.884Z,17.05
2019-05-19T06:41:02.177Z,17.12
2019-05-19T06:43:31.309Z,17.17
2019-05-19T06:46:00.611Z,17.23
2019-05-19T06:48:30.166Z,17.24
2019-05-19T06:50:59.376Z,17.30
2019-05-19T06:53:28.707Z,17.29
2019-05-19T06:55:57.709Z,17.37
2019-05-19T06:58:27.590Z,17.38
2019-05-19T07:00:59.130Z,17.41
2019-05-19T07:03:30.082Z,17.43
2019-05-19T07:05:59.734Z,17.47
2019-05-19T07:08:30.675Z,17.52
2019-05-19T07:10:59.917Z,17.59
2019-05-19T07:13:28.915Z,17.64
2019-05-19T07:15:58.260Z,17.68
2019-05-19T07:18:27.664Z,17.73
2019-05-19T07:20:56.894Z,17.76
2019-05-19T07:23:28.637Z,17.83
2019-05-19T07:25:58.540Z,17.89
2019-05-19T07:28:28.101Z,17.93
2019-05-19T07:30:57.425Z,18.02
2019-05-19T07:33:26.673Z,18.03
2019-05-19T07:35:55.753Z,18.08
2019-05-19T07:38:24.817Z,18.09
2019-05-19T07:40:53.788Z,18.14
2019-05-19T07:43:23.184Z,18.17
2019-05-19T07:45:52.540Z,18.22
2019-05-19T07:48:21.531Z,18.26
2019-05-19T07:50:50.601Z,18.33
2019-05-19T07:53:19.809Z,18.34
2019-05-19T07:55:49.373Z,18.37
2019-05-19T07:58:19.926Z,18.40
2019-05-19T08:00:49.738Z,18.42
2019-05-19T08:03:19.020Z,18.42
2019-05-19T08:05:48.057Z,18.45
2019-05-19T08:08:17.332Z,18.48
2019-05-19T08:10:46.636Z,18.50
2019-05-19T08:13:15.854Z,18.52
2019-05-19T08:15:44.995Z,18.59
2019-05-19T08:18:14.451Z,18.58
2019-05-19T08:20:43.838Z,18.62
2019-05-19T08:23:12.870Z,18.67
2019-05-19T08:25:43.255Z,18.74
2019-05-19T08:28:12.639Z,18.79
2019-05-19T08:30:42.032Z,18.80
2019-05-19T08:33:11.039Z,18.87
2019-05-19T08:35:40.429Z,18.92
2019-05-19T08:38:10.101Z,18.99
2019-05-19T08:40:39.345Z,19.06
2019-05-19T08:43:08.492Z,19.13
2019-05-19T08:45:38.106Z,19.19
2019-05-19T08:48:09.015Z,19.23
2019-05-19T08:50:39.061Z,19.28
2019-05-19T08:53:08.569Z,19.31
2019-05-19T08:55:37.715Z,19.32
2019-05-19T08:58:07.902Z,19.27
2019-05-19T09:00:38.549Z,19.31
2019-05-19T09:03:08.279Z,19.35
2019-05-19T09:05:38.181Z,19.35
2019-05-19T09:08:07.272Z,19.39
2019-05-19T09:10:37.834Z,19.48
2019-05-19T09:13:07.589Z,19.52
2019-05-19T09:15:37.612Z,19.59
2019-05-19T09:18:07.076Z,19.58
2019-05-19T09:20:36.801Z,19.61
2019-05-19T09:23:06.114Z,19.63
2019-05-19T09:25:36.372Z,19.65
2019-05-19T09:28:05.939Z,19.68
2019-05-19T09:30:35.695Z,19.70
2019-05-19T09:33:05.317Z,19.68
2019-05-19T09:35:35.099Z,19.70
2019-05-19T09:38:04.769Z,19.72
2019-05-19T09:40:34.064Z,19.78
2019-05-19T09:43:04.220Z,19.88
2019-05-19T09:45:34.926Z,19.91
2019-05-19T09:48:04.902Z,19.98
2019-05-19T09:50:34.458Z,20.00
2019-05-19T09:53:04.323Z,20.00
2019-05-19T09:55:35.150Z,19.99
2019-05-19T09:58:05.470Z,20.00
2019-05-19T10:00:34.849Z,20.05
2019-05-19T10:03:04.066Z,20.07
2019-05-19T10:05:33.465Z,20.15
2019-05-19T10:08:03.387Z,20.20
2019-05-19T10:11:45.862Z,20.28
2019-05-19T10:14:15.040Z,20.32
2019-05-19T10:16:46.909Z,20.42
2019-05-19T10:19:17.782Z,20.53
2019-05-19T10:21:46.571Z,20.78
2019-05-19T10:24:15.465Z,20.79
2019-05-19T10:26:47.277Z,20.83
2019-05-19T10:29:16.735Z,20.82
2019-05-19T10:31:46.068Z,20.85
2019-05-19T10:34:15.396Z,20.88
2019-05-19T10:36:44.646Z,20.93
2019-05-19T10:39:13.836Z,20.95
2019-05-19T10:41:43.127Z,20.96
2019-05-19T10:44:12.321Z,20.95
2019-05-19T10:46:44.345Z,20.98
2019-05-19T10:49:14.114Z,20.97
2019-05-19T10:51:43.261Z,21.06
2019-05-19T10:54:12.320Z,21.05
2019-05-19T10:56:41.658Z,21.11
2019-05-19T10:59:11.085Z,21.22
2019-05-19T11:01:40.569Z,21.36
2019-05-19T11:04:09.903Z,21.35
2019-05-19T11:06:39.011Z,21.32
2019-05-19T11:09:08.829Z,21.34
2019-05-19T11:11:37.847Z,21.44
2019-05-19T11:14:07.372Z,21.65
2019-05-19T11:16:36.487Z,22.10
2019-05-19T11:19:05.855Z,22.66
2019-05-19T11:21:35.129Z,24.03
2019-05-19T11:24:04.640Z,25.55
2019-05-19T11:26:33.834Z,26.93
2019-05-19T11:29:03.153Z,27.33
2019-05-19T11:31:32.830Z,26.82
2019-05-19T11:34:02.372Z,25.95
2019-05-19T11:36:31.876Z,25.34
2019-05-19T11:39:02.046Z,24.84
2019-05-19T11:41:32.477Z,24.75
2019-05-19T11:44:01.650Z,24.60
2019-05-19T11:46:30.698Z,25.21
2019-05-19T11:48:59.878Z,26.18
2019-05-19T11:51:29.329Z,26.95
2019-05-19T11:53:58.656Z,26.46
2019-05-19T11:56:27.541Z,28.30
2019-05-19T11:58:56.123Z,30.34
2019-05-19T12:01:25.457Z,31.98
2019-05-19T12:03:55.535Z,33.53
2019-05-19T12:06:37.997Z,34.84
2019-05-19T12:08:55.561Z,36.06
2019-05-19T12:11:24.411Z,36.91
2019-05-19T12:13:53.379Z,37.69
2019-05-19T12:16:22.386Z,38.32
2019-05-19T12:18:51.315Z,38.98
2019-05-19T12:21:20.064Z,39.70
2019-05-19T12:23:48.988Z,38.20
2019-05-19T12:26:23.072Z,38.06
2019-05-19T12:28:48.547Z,38.48
2019-05-19T12:31:17.236Z,39.32
2019-05-19T12:33:52.093Z,39.68
2019-05-19T12:36:17.697Z,40.31
2019-05-19T12:38:46.893Z,40.47
2019-05-19T12:41:15.867Z,40.70
2019-05-19T12:43:44.749Z,41.10
2019-05-19T12:46:16.645Z,41.52
2019-05-19T12:48:44.565Z,41.74
2019-05-19T12:51:13.560Z,41.65
2019-05-19T12:53:42.549Z,41.94
2019-05-19T12:56:11.604Z,41.43
2019-05-19T12:58:40.471Z,41.07
2019-05-19T13:01:09.265Z,39.93
2019-05-19T13:03:38.109Z,40.12
2019-05-19T13:06:07.314Z,40.36
2019-05-19T13:08:36.388Z,40.41
2019-05-19T13:11:05.284Z,39.75
2019-05-19T13:13:34.150Z,39.94
2019-05-19T13:16:02.821Z,40.15
2019-05-19T13:18:31.607Z,39.40
2019-05-19T13:21:00.447Z,39.54
2019-05-19T13:23:29.830Z,38.49
2019-05-19T13:25:58.908Z,38.76
2019-05-19T13:28:27.822Z,39.06
2019-05-19T13:30:56.722Z,39.14
2019-05-19T13:33:25.786Z,39.33
2019-05-19T13:35:54.825Z,39.54
2019-05-19T13:38:24.093Z,39.51
2019-05-19T13:40:52.984Z,39.38
2019-05-19T13:43:25.843Z,39.36
2019-05-19T13:45:52.934Z,39.61
2019-05-19T13:48:23.448Z,39.93
2019-05-19T13:50:52.423Z,39.57
2019-05-19T13:53:21.132Z,39.56
2019-05-19T13:55:50.718Z,39.64
2019-05-19T13:58:19.529Z,39.63
2019-05-19T14:00:48.711Z,39.73
2019-05-19T14:03:17.712Z,39.68
2019-05-19T14:05:46.374Z,39.80
2019-05-19T14:08:15.217Z,39.88
2019-05-19T14:10:44.723Z,39.72
2019-05-19T14:13:13.756Z,39.75
2019-05-19T14:15:43.142Z,38.58
2019-05-19T14:18:12.454Z,38.07
2019-05-19T14:20:41.149Z,36.17
2019-05-19T14:23:10.131Z,36.55
2019-05-19T14:25:39.632Z,37.10
2019-05-19T14:28:08.450Z,37.71
2019-05-19T14:30:37.590Z,36.69
2019-05-19T14:33:06.661Z,36.46
2019-05-19T14:35:35.669Z,35.73
2019-05-19T14:38:04.939Z,36.10
2019-05-19T14:40:34.107Z,36.80
2019-05-19T14:43:04.189Z,37.43
2019-05-19T14:45:33.189Z,37.90
2019-05-19T14:48:02.001Z,38.08
2019-05-19T14:50:30.786Z,38.21
2019-05-19T14:52:59.653Z,38.05
2019-05-19T14:55:30.308Z,37.46
2019-05-19T14:57:59.086Z,37.47
2019-05-19T15:00:27.835Z,37.10
2019-05-19T15:02:56.710Z,35.63
2019-05-19T15:05:25.468Z,33.69
2019-05-19T15:07:55.168Z,33.97
2019-05-19T15:10:24.523Z,32.79
2019-05-19T15:12:53.682Z,31.23
2019-05-19T15:15:22.697Z,31.74
2019-05-19T15:17:52.569Z,32.64
2019-05-19T15:20:21.734Z,33.07
2019-05-19T15:22:50.739Z,31.67
2019-05-19T15:25:19.686Z,29.95
2019-05-19T15:27:59.919Z,28.28
2019-05-19T15:30:19.041Z,27.05
2019-05-19T15:32:48.339Z,26.06
2019-05-19T15:35:17.661Z,25.16
2019-05-19T15:37:46.440Z,24.51
2019-05-19T15:40:15.415Z,24.00
2019-05-19T15:42:44.790Z,23.51
2019-05-19T15:45:14.068Z,23.17
2019-05-19T15:47:44.481Z,22.88
2019-05-19T15:50:13.491Z,22.61
2019-05-19T15:52:42.472Z,22.30
2019-05-19T15:55:11.881Z,22.10
2019-05-19T15:57:41.142Z,21.91
2019-05-19T16:00:10.953Z,21.76
2019-05-19T16:02:40.277Z,21.67
2019-05-19T16:05:09.761Z,21.52
2019-05-19T16:07:39.245Z,21.38
2019-05-19T16:10:10.102Z,21.25
2019-05-19T16:12:39.466Z,21.15
2019-05-19T16:15:08.714Z,21.05
2019-05-19T16:17:38.024Z,20.97
2019-05-19T16:20:08.515Z,20.89
2019-05-19T16:22:38.282Z,20.80
2019-05-19T16:25:07.778Z,20.70
2019-05-19T16:27:38.118Z,20.61
2019-05-19T16:30:07.431Z,20.52
2019-05-19T16:32:36.433Z,20.47
2019-05-19T16:35:08.617Z,20.38
2019-05-19T16:37:38.992Z,20.30
2019-05-19T16:40:08.901Z,20.25
2019-05-19T16:42:38.087Z,20.19
2019-05-19T16:45:08.706Z,20.08
2019-05-19T16:47:37.764Z,19.98
2019-05-19T16:50:07.824Z,19.89
2019-05-19T16:52:37.619Z,19.81
2019-05-19T16:55:22.969Z,19.73
2019-05-19T16:57:52.443Z,19.68
2019-05-19T17:00:21.833Z,19.61
2019-05-19T17:02:50.812Z,19.53
2019-05-19T17:05:19.971Z,19.45
2019-05-19T17:07:49.510Z,19.39
2019-05-19T17:10:20.116Z,19.33
2019-05-19T17:12:48.997Z,19.27
2019-05-19T17:15:18.710Z,19.19
2019-05-19T17:17:48.088Z,19.13
2019-05-19T17:20:18.257Z,19.07
2019-05-19T17:22:47.307Z,18.98
2019-05-19T17:25:16.611Z,18.93
2019-05-19T17:27:45.776Z,18.82
2019-05-19T17:30:15.817Z,18.74
2019-05-19T17:32:45.162Z,18.70
2019-05-19T17:35:14.432Z,18.64
2019-05-19T17:37:43.693Z,18.58
2019-05-19T17:40:14.199Z,18.48
2019-05-19T17:42:44.359Z,18.42
2019-05-19T17:45:13.409Z,18.35
2019-05-19T17:47:42.596Z,18.28
2019-05-19T17:50:13.073Z,18.20
2019-05-19T17:52:42.422Z,18.16
2019-05-19T17:55:11.597Z,18.11
2019-05-19T17:57:41.262Z,18.09
2019-05-19T18:00:10.776Z,18.08
2019-05-19T18:02:40.192Z,18.05
2019-05-19T18:05:09.792Z,18.00
2019-05-19T18:07:39.355Z,17.97
2019-05-19T18:10:09.168Z,17.94
2019-05-19T18:12:38.590Z,17.87
2019-05-19T18:15:07.963Z,17.84
2019-05-19T18:17:37.223Z,17.81
2019-05-19T18:20:06.904Z,17.75
2019-05-19T18:22:36.286Z,17.69
2019-05-19T18:25:05.396Z,17.66
2019-05-19T18:27:34.697Z,17.60
2019-05-19T18:30:03.998Z,17.58
2019-05-19T18:32:33.202Z,17.54
2019-05-19T18:35:02.562Z,17.51
2019-05-19T18:37:31.816Z,17.48
2019-05-19T18:40:02.957Z,17.47
2019-05-19T18:42:32.421Z,17.43
2019-05-19T18:45:01.632Z,17.40
2019-05-19T18:47:31.020Z,17.36
2019-05-19T18:50:00.089Z,17.34
2019-05-19T18:52:29.510Z,17.29
2019-05-19T18:54:58.817Z,17.27
2019-05-19T18:57:28.036Z,17.22
2019-05-19T18:59:57.723Z,17.17
2019-05-19T19:02:27.077Z,17.13
2019-05-19T19:04:56.303Z,17.09
2019-05-19T19:07:45.164Z,17.05
2019-05-19T19:10:14.441Z,16.99
2019-05-19T19:12:44.562Z,16.91
2019-05-19T19:15:14.021Z,16.83
2019-05-19T19:17:43.482Z,16.75
2019-05-19T19:20:12.893Z,16.68
2019-05-19T19:22:42.258Z,16.58
2019-05-19T19:25:11.327Z,16.53
2019-05-19T19:27:40.505Z,16.46
2019-05-19T19:30:10.897Z,16.41
2019-05-19T19:32:40.246Z,16.36
2019-05-19T19:35:10.764Z,16.33
2019-05-19T19:37:40.100Z,16.28
2019-05-19T19:40:09.782Z,16.23
2019-05-19T19:42:39.207Z,16.20
2019-05-19T19:45:09.076Z,16.14
2019-05-19T19:47:38.430Z,16.11
2019-05-19T19:50:09.021Z,16.05
2019-05-19T19:52:38.294Z,15.99
2019-05-19T19:55:07.639Z,15.93
2019-05-19T19:57:36.693Z,15.90
2019-05-19T20:00:17.978Z,15.87
2019-05-19T20:02:38.423Z,15.84
2019-05-19T20:05:08.029Z,15.78
2019-05-19T20:07:38.925Z,15.72
2019-05-19T20:10:08.452Z,15.67
2019-05-19T20:12:38.547Z,15.61
2019-05-19T20:15:08.306Z,15.54
2019-05-19T20:17:37.796Z,15.48
2019-05-19T20:20:06.929Z,15.44
2019-05-19T20:22:36.118Z,15.38
2019-05-19T20:25:05.519Z,15.34
2019-05-19T20:27:36.014Z,15.27
2019-05-19T20:30:05.548Z,15.22
2019-05-19T20:32:34.488Z,15.15
2019-05-19T20:35:03.855Z,15.10
2019-05-19T20:37:33.224Z,15.05
2019-05-19T20:40:02.372Z,14.98
2019-05-19T20:42:32.198Z,14.91
2019-05-19T20:45:01.379Z,14.83
2019-05-19T20:47:30.728Z,14.79
2019-05-19T20:50:00.484Z,14.74
2019-05-19T20:52:30.118Z,14.71
2019-05-19T20:54:59.137Z,14.70
2019-05-19T20:57:28.406Z,14.65
2019-05-19T20:59:57.854Z,14.60
2019-05-19T21:02:28.490Z,14.58
2019-05-19T21:04:57.900Z,14.49
2019-05-19T21:07:27.477Z,14.49
2019-05-19T21:09:57.836Z,14.45
2019-05-19T21:12:26.945Z,14.40
2019-05-19T21:14:56.136Z,14.36
2019-05-19T21:17:38.036Z,14.24
2019-05-19T21:20:07.532Z,14.24
2019-05-19T21:22:36.895Z,14.19
2019-05-19T21:25:06.349Z,14.13
2019-05-19T21:27:35.636Z,14.06
2019-05-19T21:30:04.996Z,14.00
2019-05-19T21:32:34.015Z,13.96
2019-05-19T21:35:03.349Z,13.91
2019-05-19T21:37:32.394Z,13.88
2019-05-19T21:40:01.711Z,13.83
2019-05-19T21:42:30.723Z,13.82
2019-05-19T21:44:59.841Z,13.78
2019-05-19T21:47:29.017Z,13.75
2019-05-19T21:49:58.165Z,13.64
2019-05-19T21:52:27.492Z,13.69
2019-05-19T21:54:56.595Z,13.65
2019-05-19T21:57:26.199Z,13.65
2019-05-19T21:59:55.197Z,13.65
2019-05-19T22:02:24.338Z,13.63
2019-05-19T22:04:53.615Z,13.60
2019-05-19T22:07:53.588Z,13.55
2019-05-19T22:10:22.874Z,13.52
2019-05-19T22:12:51.697Z,13.48
2019-05-19T22:15:21.178Z,13.42
2019-05-19T22:17:50.563Z,13.38
2019-05-19T22:20:19.950Z,13.34
2019-05-19T22:22:49.153Z,13.26
2019-05-19T22:25:18.168Z,13.26
2019-05-19T22:27:47.237Z,13.28
2019-05-19T22:30:16.706Z,13.25
2019-05-19T22:32:46.046Z,13.21
2019-05-19T22:35:15.519Z,13.18
2019-05-19T22:37:44.744Z,13.14
2019-05-19T22:40:15.950Z,13.11
2019-05-19T22:42:45.773Z,13.06
2019-05-19T22:45:14.978Z,13.02
2019-05-19T22:47:44.371Z,13.00
2019-05-19T22:50:14.001Z,12.97
2019-05-19T22:52:43.708Z,12.96
2019-05-19T22:55:13.461Z,12.94
2019-05-19T22:57:42.410Z,12.93
2019-05-19T23:00:12.992Z,12.92
2019-05-19T23:02:43.665Z,12.88
2019-05-19T23:05:13.617Z,12.90
2019-05-19T23:07:42.903Z,12.87
2019-05-19T23:10:13.630Z,12.82
2019-05-19T23:12:42.655Z,12.82
2019-05-19T23:15:11.970Z,12.79
2019-05-19T23:17:41.090Z,12.73
2019-05-19T23:20:10.795Z,12.69
2019-05-19T23:22:39.857Z,12.65
2019-05-19T23:25:09.034Z,12.65
2019-05-19T23:27:38.220Z,12.65
2019-05-19T23:30:07.764Z,12.59
2019-05-19T23:32:36.857Z,12.59
2019-05-19T23:35:06.305Z,12.57
2019-05-19T23:37:35.274Z,12.55
2019-05-19T23:40:04.867Z,12.55
2019-05-19T23:42:34.462Z,12.56
2019-05-19T23:45:03.559Z,12.54
2019-05-19T23:47:32.756Z,12.46
2019-05-19T23:50:01.852Z,12.51
2019-05-19T23:52:31.063Z,12.51
2019-05-19T23:55:00.073Z,12.52
2019-05-19T23:57:29.155Z,12.54
2019-05-19T23:59:58.485Z,12.55
